Time;durP1;ratioP1;P1;durP2;ratioP2;P2;SDS_P1;SDS_P2;PMS_P1;PMS_P2;Temp;Humidity;BMP_temperature;BMP_pressure;BME280_temperature;BME280_humidity;BME280_pressure;Samples;Min_cycle;Max_cycle;Signal;HPM_P1;HPM_P2
2023/09/05 00:01:59;;;;;;;6.00;4.13;;;;;;;26.65;45.82;102128.97;5074395;28;20032;-77
2023/09/05 00:04:25;;;;;;;4.80;3.50;;;;;;;26.92;45.15;102124.69;5056234;28;20032;-77
2023/09/05 00:06:50;;;;;;;5.40;3.63;;;;;;;27.03;44.99;102116.00;5055629;28;20036;-77
2023/09/05 00:09:19;;;;;;;4.70;3.15;;;;;;;26.67;45.71;102116.34;5056700;28;20041;-77
2023/09/05 00:11:46;;;;;;;5.80;3.92;;;;;;;26.61;45.76;102114.88;5056524;28;20036;-77
2023/09/05 00:14:11;;;;;;;5.07;3.53;;;;;;;26.85;45.11;102114.44;5056010;28;20036;-75
2023/09/05 00:16:37;;;;;;;5.53;3.70;;;;;;;27.21;44.56;102106.00;5065304;28;20445;-77
2023/09/05 00:19:03;;;;;;;4.05;3.53;;;;;;;26.97;44.80;102102.09;5041115;28;20033;-76
2023/09/05 00:21:29;;;;;;;8.10;3.72;;;;;;;26.74;44.91;102107.03;5036751;28;20081;-76
2023/09/05 00:24:27;;;;;;;3.28;2.55;;;;;;;27.02;44.41;102097.31;5036666;28;20396;-76
2023/09/05 00:26:55;;;;;;;4.63;3.67;;;;;;;26.92;44.35;102105.91;5058270;28;20078;-77
2023/09/05 00:29:21;;;;;;;14.55;4.10;;;;;;;27.24;43.63;102094.22;5047419;28;20511;-77
2023/09/05 00:31:47;;;;;;;4.60;3.00;;;;;;;26.91;44.43;102090.81;5073797;28;20033;-77
2023/09/05 00:34:15;;;;;;;5.63;3.17;;;;;;;27.09;44.07;102093.31;5073495;28;20036;-76
2023/09/05 00:36:42;;;;;;;3.53;2.65;;;;;;;26.78;44.63;102091.59;5043967;28;20060;-76
2023/09/05 00:39:08;;;;;;;6.90;3.47;;;;;;;26.92;44.35;102089.81;5048209;28;20032;-77
2023/09/05 00:41:34;;;;;;;9.00;3.25;;;;;;;26.89;44.21;102095.38;5054051;28;20473;-77
2023/09/05 00:44:00;;;;;;;5.32;3.15;;;;;;;26.76;44.49;102094.38;5056466;28;20027;-77
2023/09/05 00:46:28;;;;;;;8.75;3.33;;;;;;;26.64;44.85;102084.34;5055196;28;20040;-76
2023/09/05 00:48:57;;;;;;;4.40;3.03;;;;;;;26.51;44.87;102095.78;5056301;28;20024;-77
2023/09/05 00:51:25;;;;;;;4.40;2.83;;;;;;;26.66;44.82;102095.84;5038391;28;20044;-77
2023/09/05 00:53:51;;;;;;;3.53;2.67;;;;;;;26.43;44.84;102098.03;5035712;28;20013;-76
2023/09/05 00:56:17;;;;;;;5.18;3.38;;;;;;;26.67;44.36;102089.53;5058618;28;20510;-77
2023/09/05 00:58:42;;;;;;;4.80;3.28;;;;;;;26.68;44.29;102085.88;5048361;28;20029;-77
2023/09/05 01:01:08;;;;;;;5.03;3.17;;;;;;;26.71;44.31;102091.13;5059551;28;20044;-77
2023/09/05 01:03:33;;;;;;;4.07;2.83;;;;;;;26.22;45.30;102079.53;5073855;28;20031;-76
2023/09/05 01:06:08;;;;;;;3.90;2.80;;;;;;;25.69;46.34;102083.38;5073737;28;20405;-76
2023/09/05 01:08:55;;;;;;;4.22;2.92;;;;;;;26.28;45.06;102086.38;5071395;28;20117;-77
2023/09/05 01:11:21;;;;;;;3.90;2.70;;;;;;;26.20;45.44;102085.94;5071970;28;20031;-77
2023/09/05 01:13:47;;;;;;;4.88;2.78;;;;;;;26.03;45.63;102086.91;5074256;28;20036;-77
2023/09/05 01:16:12;;;;;;;4.53;2.72;;;;;;;26.10;45.14;102085.59;5078786;28;20028;-76
2023/09/05 01:18:39;;;;;;;4.82;2.85;;;;;;;26.11;45.59;102084.66;5086552;28;20028;-77
2023/09/05 01:21:05;;;;;;;4.13;2.63;;;;;;;26.38;45.12;102084.06;5085501;28;20490;-77
2023/09/05 01:23:37;;;;;;;4.18;3.17;;;;;;;26.24;45.11;102077.66;5087800;28;20036;-77
2023/09/05 01:26:04;;;;;;;6.82;2.90;;;;;;;26.48;44.74;102074.50;5092752;28;20141;-77
2023/09/05 01:28:35;;;;;;;5.13;2.92;;;;;;;26.57;44.49;102071.31;5093051;28;20429;-77
2023/09/05 01:31:00;;;;;;;5.07;3.20;;;;;;;26.20;45.44;102065.38;5082802;28;20058;-76
2023/09/05 01:33:26;;;;;;;4.13;3.05;;;;;;;25.95;45.91;102068.53;5092277;28;20118;-76
2023/09/05 01:35:51;;;;;;;4.05;3.00;;;;;;;25.64;46.44;102067.56;5091534;28;20028;-76
2023/09/05 01:38:17;;;;;;;4.07;3.10;;;;;;;26.04;45.62;102064.53;5092195;28;20399;-77
2023/09/05 01:40:42;;;;;;;6.68;2.92;;;;;;;25.84;46.38;102058.44;5091155;28;20055;-77
2023/09/05 01:43:07;;;;;;;4.95;2.60;;;;;;;25.73;46.35;102060.84;5091740;28;20020;-76
2023/09/05 01:45:33;;;;;;;4.95;3.25;;;;;;;25.96;45.97;102056.03;5090928;28;20031;-76
2023/09/05 01:47:58;;;;;;;4.75;3.10;;;;;;;25.79;46.42;102055.16;5090655;28;20101;-76
2023/09/05 01:50:23;;;;;;;4.75;3.25;;;;;;;25.67;46.96;102055.81;5091832;28;20028;-77
2023/09/05 01:52:49;;;;;;;5.22;3.35;;;;;;;25.52;46.95;102055.69;5091835;28;20020;-76
2023/09/05 01:55:14;;;;;;;5.03;3.53;;;;;;;25.39;47.41;102052.84;5081977;28;20032;-77
2023/09/05 01:57:40;;;;;;;4.75;3.20;;;;;;;25.86;46.47;102045.81;5090988;28;20479;-76
2023/09/05 02:00:06;;;;;;;7.03;4.10;;;;;;;25.32;47.40;102050.53;5087916;28;20132;-77
2023/09/05 02:02:31;;;;;;;6.18;3.42;;;;;;;25.42;47.11;102049.13;5035975;28;20489;-76
2023/09/05 02:04:57;;;;;;;5.82;3.70;;;;;;;25.57;46.98;102050.97;5055813;28;20031;-76
2023/09/05 02:07:22;;;;;;;6.90;3.55;;;;;;;25.30;47.03;102055.97;5053547;28;20028;-76
2023/09/05 02:09:47;;;;;;;6.57;4.15;;;;;;;25.51;46.43;102051.31;5054272;28;20024;-77
2023/09/05 02:12:14;;;;;;;6.32;4.18;;;;;;;25.55;46.69;102044.84;5052907;28;20422;-77
2023/09/05 02:14:45;;;;;;;4.68;3.50;;;;;;;25.65;46.38;102042.53;5044199;28;20029;-77
2023/09/05 02:17:12;;;;;;;6.70;3.05;;;;;;;25.80;45.99;102040.81;5053955;28;20052;-77
2023/09/05 02:19:37;;;;;;;4.68;3.33;;;;;;;25.70;45.78;102032.41;5054194;28;20029;-77
2023/09/05 02:22:03;;;;;;;5.57;3.63;;;;;;;25.24;47.11;102035.75;5034988;28;20124;-77
2023/09/05 02:24:28;;;;;;;5.30;3.63;;;;;;;25.30;47.37;102031.03;5034051;28;20028;-77
2023/09/05 02:26:54;;;;;;;7.97;3.97;;;;;;;25.81;45.92;102031.81;5043292;28;20033;-76
2023/09/05 02:29:20;;;;;;;6.90;3.88;;;;;;;25.16;47.64;102029.94;5048825;28;20032;-76
2023/09/05 02:31:45;;;;;;;5.93;4.40;;;;;;;25.51;46.95;102024.56;5054322;28;20027;-75
2023/09/05 02:34:11;;;;;;;5.30;4.20;;;;;;;25.91;45.90;102022.34;5070939;28;20029;-76
2023/09/05 02:36:36;;;;;;;5.78;3.97;;;;;;;25.31;46.82;102016.72;5037403;28;20040;-76
2023/09/05 02:39:02;;;;;;;7.53;4.70;;;;;;;25.37;46.58;102013.72;5033728;28;20024;-76
2023/09/05 02:41:27;;;;;;;7.38;4.75;;;;;;;25.26;46.99;102024.97;5034656;28;20037;-75
2023/09/05 02:43:53;;;;;;;7.90;4.90;;;;;;;25.35;46.70;102029.88;5051031;28;20029;-76
2023/09/05 02:46:18;;;;;;;6.93;3.65;;;;;;;25.30;46.89;102031.03;5051284;28;20025;-76
2023/09/05 02:48:44;;;;;;;7.35;4.53;;;;;;;25.46;46.28;102026.59;5053919;28;20051;-77
2023/09/05 02:51:11;;;;;;;6.82;4.20;;;;;;;24.66;48.09;102033.44;5033463;28;20036;-77
2023/09/05 02:53:37;;;;;;;7.90;4.28;;;;;;;25.13;46.99;102023.88;5051887;28;20032;-76
2023/09/05 02:56:03;;;;;;;5.68;4.18;;;;;;;25.64;46.24;102023.88;5071424;28;20028;-77
2023/09/05 02:58:30;;;;;;;10.85;3.90;;;;;;;25.32;46.58;102023.75;5036051;28;20032;-77
2023/09/05 03:01:05;;;;;;;6.07;3.95;;;;;;;25.18;46.89;102022.72;5063023;28;20113;-77
2023/09/05 03:03:31;;;;;;;5.85;4.13;;;;;;;25.38;46.31;102024.34;5071214;28;20036;-77
2023/09/05 03:05:57;;;;;;;7.50;3.83;;;;;;;24.95;47.62;102015.03;5076283;28;20046;-77
2023/09/05 03:08:23;;;;;;;5.75;3.90;;;;;;;25.34;46.94;102021.91;5079600;28;20123;-77
2023/09/05 03:10:50;;;;;;;4.75;3.90;;;;;;;25.52;46.14;102020.91;5089359;28;20170;-77
2023/09/05 03:13:16;;;;;;;6.10;3.72;;;;;;;25.45;46.60;102021.34;5089459;28;20085;-76
2023/09/05 03:15:41;;;;;;;8.80;4.00;;;;;;;25.21;46.48;102025.22;5089423;28;20024;-77
2023/09/05 03:18:07;;;;;;;9.75;4.00;;;;;;;25.52;46.24;102014.69;5088298;28;20071;-77
2023/09/05 03:20:32;;;;;;;5.53;3.92;;;;;;;25.15;46.81;102012.16;5090529;28;20100;-77
2023/09/05 03:22:57;;;;;;;5.88;3.80;;;;;;;24.67;47.68;102005.75;5088232;28;20533;-77
2023/09/05 03:25:23;;;;;;;5.10;3.80;;;;;;;25.30;46.89;102014.97;5089379;28;20031;-77
2023/09/05 03:27:48;;;;;;;5.65;3.78;;;;;;;24.93;47.50;102014.25;5089854;28;20027;-77
2023/09/05 03:30:14;;;;;;;6.35;3.80;;;;;;;25.15;46.53;102011.31;5090076;28;20032;-77
2023/09/05 03:32:39;;;;;;;5.78;3.80;;;;;;;24.83;47.33;102000.50;5091037;28;20020;-77
2023/09/05 03:35:05;;;;;;;6.28;3.92;;;;;;;25.49;46.24;102002.34;5090279;28;20396;-77
2023/09/05 03:37:30;;;;;;;6.20;4.05;;;;;;;25.07;46.74;101995.66;5084135;28;20122;-77
2023/09/05 03:39:56;;;;;;;7.68;3.88;;;;;;;24.97;47.19;101989.94;5090342;28;20032;-77
2023/09/05 03:42:22;;;;;;;7.90;4.28;;;;;;;25.23;46.20;101985.84;5088821;28;20032;-77
2023/09/05 03:44:47;;;;;;;9.38;4.43;;;;;;;25.10;47.00;101984.81;5089844;28;20035;-77
2023/09/05 03:47:13;;;;;;;9.23;4.32;;;;;;;25.06;46.86;101977.91;5089546;28;20453;-77
2023/09/05 03:49:38;;;;;;;5.95;3.53;;;;;;;25.30;46.91;101988.22;5089992;28;20204;-77
2023/09/05 03:52:04;;;;;;;5.57;4.10;;;;;;;25.38;46.09;101986.03;5091596;28;20020;-77
2023/09/05 03:54:29;;;;;;;5.68;3.47;;;;;;;24.78;47.86;101986.50;5069641;28;20039;-76
2023/09/05 03:56:55;;;;;;;7.93;4.10;;;;;;;24.96;47.56;101990.00;5069605;28;20033;-77
2023/09/05 03:59:20;;;;;;;9.43;4.50;;;;;;;24.92;47.63;101983.09;5069724;28;20117;-77
2023/09/05 04:01:49;;;;;;;5.07;3.80;;;;;;;25.19;46.66;101992.31;5086703;28;20055;-77
2023/09/05 04:04:15;;;;;;;7.97;4.45;;;;;;;25.08;47.13;101984.00;5089483;28;20036;-77
2023/09/05 04:06:40;;;;;;;6.22;4.05;;;;;;;25.12;47.07;101985.59;5090164;28;20081;-76
2023/09/05 04:09:05;;;;;;;6.70;4.00;;;;;;;25.31;46.06;101984.59;5078558;28;20032;-77
2023/09/05 04:11:31;;;;;;;7.30;4.18;;;;;;;25.24;46.39;101990.28;5088831;28;20028;-77
2023/09/05 04:13:56;;;;;;;5.47;3.75;;;;;;;25.17;47.17;101988.88;5089309;28;20070;-77
2023/09/05 04:16:22;;;;;;;8.30;3.97;;;;;;;25.31;46.45;101988.13;5089994;28;20031;-77
2023/09/05 04:18:47;;;;;;;5.30;3.92;;;;;;;25.35;46.27;101992.41;5087859;28;20036;-76
2023/09/05 04:21:12;;;;;;;6.68;4.18;;;;;;;25.23;46.94;101999.22;5088530;28;20365;-77
2023/09/05 04:23:38;;;;;;;5.35;4.10;;;;;;;24.90;47.72;101997.41;5069526;28;20498;-77
2023/09/05 04:26:04;;;;;;;6.55;4.07;;;;;;;25.05;46.67;101986.88;5070368;28;20027;-77
2023/09/05 04:28:32;;;;;;;6.22;4.10;;;;;;;25.14;47.00;101997.06;5073947;28;20024;-77
2023/09/05 04:31:02;;;;;;;5.40;3.70;;;;;;;24.98;46.68;101988.13;5083720;28;20025;-77
2023/09/05 04:33:31;;;;;;;7.18;4.30;;;;;;;24.54;47.62;101984.97;5074649;28;20023;-77
2023/09/05 04:35:56;;;;;;;5.95;3.85;;;;;;;24.69;47.58;101982.50;5087364;28;20032;-77
2023/09/05 04:38:22;;;;;;;7.68;4.53;;;;;;;24.72;46.94;101983.19;5081234;28;20081;-77
2023/09/05 04:40:47;;;;;;;5.55;3.90;;;;;;;24.82;47.68;101988.91;5077258;28;20016;-77
2023/09/05 04:43:13;;;;;;;7.32;4.20;;;;;;;24.82;47.78;101978.22;5092858;28;20461;-77
2023/09/05 04:45:38;;;;;;;9.63;4.28;;;;;;;24.86;46.92;101979.78;5081697;28;20044;-77
2023/09/05 04:48:04;;;;;;;9.07;4.43;;;;;;;24.76;48.16;101994.59;5073192;28;20027;-77
2023/09/05 04:50:29;;;;;;;6.68;3.88;;;;;;;24.96;47.23;101988.19;5074072;28;20025;-77
2023/09/05 04:52:56;;;;;;;8.75;4.20;;;;;;;25.21;46.67;101990.44;5093253;28;20160;-77
2023/09/05 04:55:21;;;;;;;5.20;3.60;;;;;;;25.08;47.08;101994.72;5092287;28;20024;-77
2023/09/05 04:57:47;;;;;;;6.43;4.28;;;;;;;24.71;47.13;101996.63;5084573;28;20051;-77
2023/09/05 05:00:13;;;;;;;6.60;4.05;;;;;;;25.11;46.53;101994.53;5084626;28;20048;-78
2023/09/05 05:02:39;;;;;;;6.03;3.78;;;;;;;24.83;47.22;101996.00;5086039;28;20024;-77
2023/09/05 05:05:05;;;;;;;8.52;4.03;;;;;;;24.68;47.63;101991.47;5089946;28;20123;-78
2023/09/05 05:07:30;;;;;;;7.07;3.75;;;;;;;24.76;47.37;101994.59;5076998;28;20032;-77
2023/09/05 05:09:55;;;;;;;9.35;4.28;;;;;;;24.97;47.44;101989.06;5088047;28;20089;-77
2023/09/05 05:12:21;;;;;;;8.07;4.63;;;;;;;24.61;47.50;101996.25;5082973;28;20028;-77
2023/09/05 05:14:46;;;;;;;5.82;3.60;;;;;;;24.88;47.04;101996.63;5085250;28;20055;-77
2023/09/05 05:17:12;;;;;;;6.55;4.22;;;;;;;24.85;47.48;101994.13;5080654;28;20032;-77
2023/09/05 05:19:38;;;;;;;7.40;3.75;;;;;;;24.98;47.10;101993.50;5088521;28;20032;-77
2023/09/05 05:22:05;;;;;;;5.57;3.97;;;;;;;24.61;48.10;101992.69;5090970;28;20569;-77
2023/09/05 05:24:31;;;;;;;5.82;3.30;;;;;;;24.69;47.69;101982.50;5092294;28;20032;-77
2023/09/05 05:26:57;;;;;;;6.57;3.80;;;;;;;24.63;48.19;101980.13;5093926;28;20024;-77
2023/09/05 05:29:23;;;;;;;6.65;4.38;;;;;;;24.48;48.21;101985.31;5091838;28;20028;-78
2023/09/05 05:31:48;;;;;;;9.32;4.00;;;;;;;24.35;48.69;101990.38;5092824;28;20142;-77
2023/09/05 05:34:15;;;;;;;6.55;3.95;;;;;;;24.52;47.73;101992.22;5092119;28;20111;-78
2023/09/05 05:36:40;;;;;;;6.38;4.28;;;;;;;24.51;48.25;102001.16;5092908;28;20458;-77
2023/09/05 05:39:06;;;;;;;6.25;4.10;;;;;;;24.27;48.69;101992.56;5092175;28;20112;-77
2023/09/05 05:41:34;;;;;;;6.10;4.22;;;;;;;24.84;47.54;101997.75;5092286;28;20077;-78
2023/09/05 05:43:59;;;;;;;7.60;4.20;;;;;;;24.64;47.99;101995.22;5090557;28;20032;-77
2023/09/05 05:46:25;;;;;;;7.78;4.28;;;;;;;24.34;48.49;102001.16;5091967;28;20024;-78
2023/09/05 05:48:51;;;;;;;6.45;3.83;;;;;;;24.90;47.53;101997.41;5091459;28;20123;-77
2023/09/05 05:51:17;;;;;;;7.75;3.95;;;;;;;25.08;46.96;102002.75;5093071;28;20066;-77
2023/09/05 05:53:43;;;;;;;8.50;4.07;;;;;;;25.18;46.85;102006.66;5092271;28;20056;-77
2023/09/05 05:56:10;;;;;;;6.70;4.32;;;;;;;24.28;49.00;102009.47;5092798;28;20020;-77
2023/09/05 05:58:35;;;;;;;9.80;4.65;;;;;;;25.04;47.29;102009.19;5091712;28;20114;-77
2023/09/05 06:01:01;;;;;;;4.80;3.67;;;;;;;24.69;48.19;102001.22;5091692;28;20130;-77
2023/09/05 06:03:26;;;;;;;6.03;3.90;;;;;;;24.29;48.62;102000.50;5091169;28;20027;-77
2023/09/05 06:05:52;;;;;;;6.20;3.97;;;;;;;24.93;47.99;101995.53;5091853;28;20081;-77
2023/09/05 06:08:18;;;;;;;7.10;3.72;;;;;;;25.33;46.86;102001.47;5091688;28;20044;-77
2023/09/05 06:10:44;;;;;;;6.20;4.10;;;;;;;25.27;47.19;101999.09;5091219;28;20020;-78
2023/09/05 06:13:11;;;;;;;7.40;4.45;;;;;;;25.01;47.60;101998.66;5091774;28;20030;-77
2023/09/05 06:15:37;;;;;;;7.65;4.72;;;;;;;25.09;47.54;102007.16;5091915;28;20035;-77
2023/09/05 06:18:04;;;;;;;6.38;3.85;;;;;;;25.33;47.13;102002.31;5092331;28;20024;-76
2023/09/05 06:20:32;;;;;;;7.15;4.10;;;;;;;25.39;47.29;101996.63;5091471;28;20028;-78
2023/09/05 06:22:58;;;;;;;8.50;3.90;;;;;;;24.94;48.08;101997.25;5092867;28;20111;-77
2023/09/05 06:25:23;;;;;;;6.95;3.95;;;;;;;25.46;46.94;101996.28;5090646;28;20119;-78
2023/09/05 06:27:48;;;;;;;4.25;3.20;;;;;;;25.65;46.48;101994.34;5091319;28;20028;-77
2023/09/05 06:30:14;;;;;;;8.98;4.00;;;;;;;25.34;47.27;102003.19;5090855;28;20532;-77
2023/09/05 06:32:40;;;;;;;6.70;4.05;;;;;;;25.78;46.68;101999.88;5091034;28;20468;-78
2023/09/05 06:35:05;;;;;;;7.72;4.18;;;;;;;25.57;46.74;102000.13;5091516;28;20028;-79
2023/09/05 06:37:33;;;;;;;6.57;4.30;;;;;;;25.57;47.10;102007.28;5092236;28;20092;-78
2023/09/05 06:40:05;;;;;;;6.60;3.97;;;;;;;25.80;46.78;102006.00;5092339;28;20024;-79
2023/09/05 06:42:30;;;;;;;5.15;3.53;;;;;;;25.91;46.59;102000.91;5090734;28;20024;-78
2023/09/05 06:44:56;;;;;;;7.95;3.25;;;;;;;25.36;47.71;102003.97;5091288;28;20020;-79
2023/09/05 06:47:21;;;;;;;8.80;3.80;;;;;;;25.26;48.11;102002.72;5091099;28;20173;-78
2023/09/05 06:49:46;;;;;;;5.65;3.65;;;;;;;26.06;46.24;101998.31;5091302;28;20028;-78
2023/09/05 06:52:12;;;;;;;5.00;3.90;;;;;;;25.76;46.60;102000.91;5091382;28;20023;-78
2023/09/05 06:54:37;;;;;;;17.83;4.43;;;;;;;25.65;46.98;101998.81;5091374;28;20027;-78
2023/09/05 06:57:03;;;;;;;9.25;5.13;;;;;;;25.83;46.85;102008.50;5091167;28;20119;-79
2023/09/05 06:59:28;;;;;;;6.75;3.85;;;;;;;26.26;45.66;102001.69;5090184;28;20035;-78
2023/09/05 07:01:54;;;;;;;7.35;3.60;;;;;;;26.53;45.60;102005.41;5090666;28;20051;-79
2023/09/05 07:04:19;;;;;;;6.60;3.70;;;;;;;25.88;46.68;102005.56;5091610;28;20032;-79
2023/09/05 07:06:45;;;;;;;8.57;3.83;;;;;;;26.08;46.39;102007.16;5090545;28;20027;-79
2023/09/05 07:09:14;;;;;;;5.70;3.58;;;;;;;26.66;45.51;102012.72;5090786;28;20024;-79
2023/09/05 07:11:40;;;;;;;7.97;4.20;;;;;;;26.93;44.76;102010.25;5090595;28;20039;-79
2023/09/05 07:14:06;;;;;;;8.43;3.92;;;;;;;25.99;46.04;102007.63;5091274;28;20028;-78
2023/09/05 07:16:31;;;;;;;6.28;3.97;;;;;;;25.89;47.04;102018.88;5090360;28;20062;-78
2023/09/05 07:18:56;;;;;;;8.80;3.92;;;;;;;26.38;46.03;102015.22;5090732;28;20016;-78
2023/09/05 07:21:22;;;;;;;9.00;3.42;;;;;;;26.70;45.02;102003.59;5090938;28;20103;-78
2023/09/05 07:23:47;;;;;;;5.47;3.30;;;;;;;26.92;44.89;102001.31;5091646;28;20032;-78
2023/09/05 07:26:12;;;;;;;4.78;3.17;;;;;;;27.43;43.52;102002.72;5090037;28;20483;-78
2023/09/05 07:28:38;;;;;;;5.70;3.33;;;;;;;27.80;43.13;102015.59;5090356;28;20024;-78
2023/09/05 07:31:04;;;;;;;7.88;3.88;;;;;;;28.86;42.38;101997.78;5090602;28;20042;-79
2023/09/05 07:33:29;;;;;;;6.53;3.45;;;;;;;30.07;39.40;102008.06;5090388;28;20028;-78
2023/09/05 07:35:55;;;;;;;5.90;3.38;;;;;;;31.91;35.64;102008.13;5091063;28;20040;-78
2023/09/05 07:38:23;;;;;;;4.40;2.83;;;;;;;33.21;33.37;102007.97;5090706;28;20028;-78
2023/09/05 07:40:48;;;;;;;3.97;2.65;;;;;;;33.86;32.17;102010.34;5091816;28;20028;-78
2023/09/05 07:43:14;;;;;;;3.85;2.30;;;;;;;34.57;30.32;102005.63;5089798;28;20494;-78
2023/09/05 07:45:40;;;;;;;6.85;2.45;;;;;;;35.65;29.25;102007.00;5090283;28;20028;-78
2023/09/05 07:48:08;;;;;;;2.97;1.88;;;;;;;36.77;27.60;102003.94;5090106;28;20475;-78
2023/09/05 07:50:37;;;;;;;6.78;2.78;;;;;;;35.38;28.55;102007.00;5089326;28;20581;-78
2023/09/05 07:53:02;;;;;;;2.85;2.55;;;;;;;36.52;27.05;101998.34;5090613;28;20020;-78
2023/09/05 07:55:28;;;;;;;4.57;2.20;;;;;;;35.88;27.67;102001.16;5089614;28;20024;-78
2023/09/05 07:57:55;;;;;;;3.90;2.75;;;;;;;36.47;27.32;101995.22;5091565;28;20032;-78
2023/09/05 08:00:20;;;;;;;3.13;2.42;;;;;;;37.16;26.88;101998.03;5083497;28;20052;-78
2023/09/05 08:02:46;;;;;;;8.25;2.92;;;;;;;36.78;27.65;101997.47;5052783;28;20025;-78
2023/09/05 08:05:12;;;;;;;4.70;2.60;;;;;;;37.49;26.71;102000.94;5052780;28;20400;-78
2023/09/05 08:07:38;;;;;;;3.15;2.10;;;;;;;37.61;28.56;101994.16;5056234;28;20067;-78
2023/09/05 08:10:06;;;;;;;2.60;2.05;;;;;;;36.11;27.50;102000.69;5056834;28;20067;-78
2023/09/05 08:12:31;;;;;;;2.97;2.22;;;;;;;36.18;28.04;101999.06;5074597;28;20024;-78
2023/09/05 08:14:57;;;;;;;3.42;2.40;;;;;;;35.99;27.63;102000.91;5074823;28;20495;-78
2023/09/05 08:17:22;;;;;;;4.72;2.05;;;;;;;35.17;28.83;101997.19;5074071;28;20472;-78
2023/09/05 08:19:47;;;;;;;4.75;2.60;;;;;;;33.27;31.40;102001.19;5074868;28;20035;-78
2023/09/05 08:22:13;;;;;;;4.38;2.70;;;;;;;32.70;32.29;101992.56;5074340;28;20033;-77
2023/09/05 08:24:38;;;;;;;4.28;2.67;;;;;;;33.34;32.16;101996.91;5056357;28;20454;-77
2023/09/05 08:27:05;;;;;;;3.85;2.40;;;;;;;31.96;32.97;102003.19;5056616;28;20494;-77
2023/09/05 08:29:31;;;;;;;4.22;2.13;;;;;;;32.50;33.26;101991.59;5056463;28;20039;-77
2023/09/05 08:31:58;;;;;;;3.20;2.13;;;;;;;32.69;32.37;101997.13;5056271;28;20036;-77
2023/09/05 08:34:23;;;;;;;3.95;2.45;;;;;;;33.79;30.61;101993.78;5056350;28;20476;-77
2023/09/05 08:36:49;;;;;;;3.53;2.40;;;;;;;34.61;30.42;101993.50;5056220;28;20121;-76
2023/09/05 08:39:14;;;;;;;3.78;2.47;;;;;;;35.79;28.78;102002.03;5055319;28;20021;-77
2023/09/05 08:41:40;;;;;;;3.53;2.28;;;;;;;35.17;29.09;102002.63;5056204;28;20474;-77
2023/09/05 08:44:06;;;;;;;5.15;2.65;;;;;;;35.07;28.45;101993.69;5074390;28;20029;-76
2023/09/05 08:46:31;;;;;;;4.38;1.98;;;;;;;36.19;27.50;102008.94;5055258;28;20032;-76
2023/09/05 08:48:57;;;;;;;3.47;1.92;;;;;;;37.06;27.08;102000.06;5055820;28;20507;-76
2023/09/05 08:51:28;;;;;;;3.65;2.28;;;;;;;37.65;26.55;102006.41;5055901;28;20112;-76
2023/09/05 08:54:00;;;;;;;3.15;2.22;;;;;;;35.38;28.17;102009.72;5055576;28;20139;-76
2023/09/05 08:56:26;;;;;;;4.75;2.35;;;;;;;36.75;27.04;102008.69;5055674;28;20027;-76
2023/09/05 08:58:52;;;;;;;2.65;2.08;;;;;;;37.41;26.87;102011.81;5072959;28;20115;-76
2023/09/05 09:01:19;;;;;;;2.60;2.05;;;;;;;36.29;27.86;102012.41;5082149;28;20051;-76
2023/09/05 09:03:44;;;;;;;6.90;2.88;;;;;;;36.82;26.67;102010.66;5092949;28;20021;-76
2023/09/05 09:06:10;;;;;;;3.95;2.28;;;;;;;34.98;28.69;102018.03;5091916;28;20525;-76
2023/09/05 09:08:44;;;;;;;3.10;1.92;;;;;;;35.12;29.78;102015.84;5091920;28;20120;-76
2023/09/05 09:11:14;;;;;;;4.00;2.38;;;;;;;35.20;29.51;102023.22;5092774;28;20024;-76
2023/09/05 09:13:40;;;;;;;4.53;2.25;;;;;;;35.10;29.82;102023.25;5091842;28;20391;-76
2023/09/05 09:16:06;;;;;;;3.13;2.30;;;;;;;34.86;29.68;102027.34;5092385;28;20028;-76
2023/09/05 09:18:32;;;;;;;3.22;2.50;;;;;;;35.08;29.67;102030.72;5091800;28;20528;-76
2023/09/05 09:21:02;;;;;;;3.10;2.20;;;;;;;34.52;30.35;102030.50;5091868;28;20028;-76
2023/09/05 09:23:30;;;;;;;4.05;2.30;;;;;;;34.18;30.86;102028.19;5091909;28;20024;-76
2023/09/05 09:25:57;;;;;;;4.15;2.22;;;;;;;34.32;30.90;102029.66;5093625;28;20388;-76
2023/09/05 09:28:31;;;;;;;4.38;2.75;;;;;;;35.90;29.30;102026.34;5091109;28;20024;-75
2023/09/05 09:31:13;;;;;;;3.78;2.30;;;;;;;36.57;28.55;102017.75;5092563;28;20032;-76
2023/09/05 09:33:39;;;;;;;4.43;2.08;;;;;;;37.14;28.15;102024.63;5092421;28;20016;-76
2023/09/05 09:36:12;;;;;;;4.78;2.35;;;;;;;36.27;28.47;102022.59;5093117;28;20119;-76
2023/09/05 09:38:38;;;;;;;4.20;2.75;;;;;;;37.25;27.83;102013.41;5093449;28;20042;-76
2023/09/05 09:41:06;;;;;;;5.22;2.33;;;;;;;37.19;27.40;102011.34;5092828;28;20094;-76
2023/09/05 09:43:34;;;;;;;5.40;2.38;;;;;;;37.11;27.25;102008.56;5092455;28;20028;-76
2023/09/05 09:46:04;;;;;;;3.30;2.35;;;;;;;36.86;28.38;102003.00;5092440;28;20028;-76
2023/09/05 09:48:33;;;;;;;5.30;2.65;;;;;;;36.58;28.59;102008.56;5092001;28;20386;-76
2023/09/05 09:51:00;;;;;;;2.80;2.22;;;;;;;36.77;28.35;102006.66;5091856;28;20111;-76
2023/09/05 09:53:37;;;;;;;3.75;2.03;;;;;;;36.57;29.10;102000.56;5091432;28;20020;-76
2023/09/05 09:56:11;;;;;;;3.35;2.00;;;;;;;37.25;27.74;101994.34;5092405;28;20487;-76
2023/09/05 09:58:42;;;;;;;4.00;2.55;;;;;;;35.59;29.10;101996.72;5092636;28;20036;-76
2023/09/05 10:01:14;;;;;;;5.50;2.33;;;;;;;35.82;29.61;101990.91;5091756;28;20044;-77
2023/09/05 10:03:42;;;;;;;2.75;2.30;;;;;;;35.10;30.70;101987.94;5091078;28;20020;-76
2023/09/05 10:06:10;;;;;;;4.60;2.40;;;;;;;34.98;30.19;101982.72;5091888;28;20488;-76
2023/09/05 10:08:37;;;;;;;4.88;2.03;;;;;;;34.64;31.00;101985.91;5091827;28;20028;-76
2023/09/05 10:11:02;;;;;;;4.43;2.40;;;;;;;34.93;30.75;101984.16;5092581;28;20490;-76
2023/09/05 10:13:32;;;;;;;4.20;2.28;;;;;;;34.40;31.09;101988.25;5092617;28;20032;-75
2023/09/05 10:16:01;;;;;;;3.13;2.17;;;;;;;34.53;31.73;101975.25;5091683;28;20032;-75
2023/09/05 10:18:28;;;;;;;3.20;1.88;;;;;;;35.45;30.57;101967.38;5092500;28;20028;-76
2023/09/05 10:20:55;;;;;;;3.45;2.15;;;;;;;34.38;31.42;101963.13;5091815;28;20032;-77
2023/09/05 10:23:23;;;;;;;2.33;1.90;;;;;;;35.19;30.65;101968.03;5090148;28;20035;-76
2023/09/05 10:25:50;;;;;;;3.63;2.10;;;;;;;35.13;30.39;101963.19;5091300;28;20020;-75
2023/09/05 10:28:15;;;;;;;6.38;2.50;;;;;;;35.50;31.05;101963.19;5091205;28;20250;-76
2023/09/05 10:30:45;;;;;;;3.88;2.17;;;;;;;35.44;31.18;101962.94;5091666;28;20030;-76
2023/09/05 10:33:13;;;;;;;5.00;2.47;;;;;;;34.60;31.32;101957.38;5092369;28;20058;-76
2023/09/05 10:35:45;;;;;;;5.53;1.90;;;;;;;34.79;32.43;101956.44;5092249;28;20032;-76
2023/09/05 10:38:15;;;;;;;3.22;2.35;;;;;;;34.75;31.92;101954.19;5090810;28;20020;-75
2023/09/05 10:40:41;;;;;;;3.33;2.53;;;;;;;35.73;30.68;101957.28;5092588;28;20464;-76
2023/09/05 10:43:08;;;;;;;3.67;2.20;;;;;;;34.60;32.40;101956.50;5092328;28;20468;-76
2023/09/05 10:45:35;;;;;;;4.18;2.58;;;;;;;35.40;31.69;101953.38;5091669;28;20625;-76
2023/09/05 10:48:09;;;;;;;4.13;2.55;;;;;;;35.18;31.12;101950.03;5091402;28;20027;-76
2023/09/05 10:51:05;;;;;;;3.58;2.20;;;;;;;35.71;30.68;101956.59;5092144;28;20321;-78
2023/09/05 10:53:31;;;;;;;2.22;1.73;;;;;;;35.00;31.69;101958.97;5090345;28;20237;-77
2023/09/05 10:55:57;;;;;;;5.03;2.50;;;;;;;34.89;31.40;101956.44;5090812;28;20024;-77
2023/09/05 10:58:47;;;;;;;3.15;1.75;;;;;;;35.71;30.68;101955.72;5090677;28;20032;-77
2023/09/05 11:01:31;;;;;;;4.03;1.70;;;;;;;35.54;30.90;101955.56;5090677;28;20043;-77
2023/09/05 11:04:03;;;;;;;4.45;2.03;;;;;;;35.73;30.13;101945.56;5091269;28;20404;-77
2023/09/05 11:06:29;;;;;;;2.28;1.98;;;;;;;35.20;30.93;101942.59;5090321;28;20020;-77
2023/09/05 11:09:07;;;;;;;2.92;1.65;;;;;;;35.41;31.69;101947.78;5091208;28;20024;-77
2023/09/05 11:11:37;;;;;;;2.60;1.92;;;;;;;35.54;30.07;101941.13;5090485;28;20445;-77
2023/09/05 11:14:06;;;;;;;2.60;1.88;;;;;;;35.97;29.89;101929.50;5091158;28;20065;-77
2023/09/05 11:16:52;;;;;;;2.85;2.00;;;;;;;36.18;29.87;101928.31;5090397;28;20020;-77
2023/09/05 11:19:38;;;;;;;4.88;2.13;;;;;;;36.09;31.26;101929.25;5090238;28;20040;-78
2023/09/05 11:22:11;;;;;;;2.70;1.90;;;;;;;36.29;29.86;101927.22;5090612;28;20115;-77
2023/09/05 11:24:45;;;;;;;2.50;1.63;;;;;;;35.40;30.82;101931.63;5090729;28;20035;-76